Welcome to Northern Hawkes Bay. New Zealand.
PWS Header
      nz Flag



Hit Counter


W3C Valid W3C Valid logo


    Wairoa

Select any of the Stations below to visit their websites.










Historic Data from Weather Underground
Select the location of interest below. Wairoa is the default. Please have patience, this Data is slow to load in.
Northern Hawkes Bay Historical Data
Daily Summary for March 10, 2017 Units:  Metric    English   Both
« Previous Day
Next Day »
Daily Weekly Monthly Yearly Custom
  High: Low: Average:
Temperature: 23.5 °C 14.7 °C 18.4 °C
Dew Point: 19.7 °C 14.6 °C 16.8 °C
Humidity: 99% 77% 91%
Wind Speed: 11.1km/h 0.0km/h 2km/h
Wind Gust: 14.8km/h - -
Wind- - South
Pressure: 1022.9 hPa 1013.1 hPa -
Precipitation: 1.0 mm    
Historical Graphs
 
 
Tabular Data for March 10, 2017
Time Temperature Dew Point Pressure Wind Wind Speed Wind Gust Humidity Rainfall Rate (Hourly) solar
00:04 15.4 °C 14.6 °C 1022.6 hPa Calm     95% 0.3 mm 0 W/m2
00:09 15.4 °C 14.6 °C 1022.9 hPa Calm     95% 0.3 mm 0 W/m2
00:15 15.4 °C 14.8 °C 1022.6 hPa Calm     96% 0.3 mm 0 W/m2
00:20 15.4 °C 14.8 °C 1022.6 hPa Calm     96% 0.3 mm 0 W/m2
00:25 15.4 °C 14.8 °C 1022.6 hPa Calm     96% 0.3 mm 0 W/m2
00:30 15.3 °C 14.7 °C 1022.6 hPa Calm     96% 0.3 mm 0 W/m2
00:36 15.3 °C 14.7 °C 1022.6 hPa Calm     96% 0.0 mm 0 W/m2
00:41 15.3 °C 14.7 °C 1022.6 hPa Calm     96% 0.0 mm 0 W/m2
00:46 15.4 °C 14.8 °C 1022.2 hPa Calm     96% 0.0 mm 0 W/m2
00:51 15.4 °C 14.8 °C 1022.6 hPa Calm     96% 0.0 mm 0 W/m2
00:56 15.4 °C 14.9 °C 1022.2 hPa Calm     97% 0.0 mm 0 W/m2
01:01 15.5 °C 15.1 °C 1022.6 hPa Calm     97% 0.0 mm 0 W/m2
01:06 15.4 °C 14.9 °C 1022.6 hPa Calm     97% 0.0 mm 0 W/m2
01:11 15.4 °C 14.9 °C 1022.2 hPa Calm     97% 0.0 mm 0 W/m2
01:16 15.4 °C 14.9 °C 1022.2 hPa Calm     97% 0.0 mm 0 W/m2
01:21 15.4 °C 14.9 °C 1022.2 hPa Calm     97% 0.0 mm 0 W/m2
01:27 15.4 °C 14.9 °C 1022.2 hPa Calm     97% 0.0 mm 0 W/m2
01:32 15.4 °C 14.9 °C 1022.2 hPa Calm     97% 0.0 mm 0 W/m2
01:37 15.3 °C 14.8 °C 1022.2 hPa Calm     97% 0.0 mm 0 W/m2
01:42 15.2 °C 14.9 °C 1022.2 hPa Calm     98% 0.0 mm 0 W/m2
01:47 15.2 °C 14.9 °C 1022.2 hPa Calm     98% 0.0 mm 0 W/m2
01:52 15.6 °C 15.3 °C 1022.2 hPa Calm     98% 0.0 mm 0 W/m2
01:57 15.3 °C 15.0 °C 1022.2 hPa Calm     98% 0.0 mm 0 W/m2
02:02 15.3 °C 15.0 °C 1022.2 hPa Calm     98% 0.0 mm 0 W/m2
02:07 15.3 °C 15.0 °C 1021.9 hPa Calm     98% 0.0 mm 0 W/m2
02:12 15.3 °C 15.2 °C 1022.2 hPa Calm     99% 0.0 mm 0 W/m2
02:17 15.3 °C 15.2 °C 1022.2 hPa Calm     99% 0.0 mm 0 W/m2
02:22 15.4 °C 15.3 °C 1022.2 hPa Calm     99% 0.0 mm 0 W/m2
02:27 15.4 °C 15.3 °C 1022.2 hPa Calm     99% 0.0 mm 0 W/m2
02:32 15.5 °C 15.3 °C 1022.2 hPa Calm     99% 0.0 mm 0 W/m2
02:37 15.4 °C 15.3 °C 1021.9 hPa Calm     99% 0.0 mm 0 W/m2
02:42 15.4 °C 15.3 °C 1021.9 hPa Calm     99% 0.0 mm 0 W/m2
02:47 15.4 °C 15.3 °C 1021.9 hPa Calm     99% 0.0 mm 0 W/m2
02:53 15.4 °C 15.3 °C 1021.6 hPa Calm     99% 0.0 mm 0 W/m2
02:58 15.3 °C 15.2 °C 1021.6 hPa Calm     99% 0.0 mm 0 W/m2
03:03 15.3 °C 15.2 °C 1021.6 hPa Calm     99% 0.0 mm 0 W/m2
03:08 15.1 °C 14.9 °C 1021.6 hPa Calm     99% 0.0 mm 0 W/m2
03:13 15.3 °C 15.2 °C 1021.6 hPa Calm     99% 0.0 mm 0 W/m2
03:18 15.3 °C 15.2 °C 1021.6 hPa Calm     99% 0.0 mm 0 W/m2
03:23 15.3 °C 15.2 °C 1021.6 hPa Calm     99% 0.0 mm 0 W/m2
03:28 14.8 °C 14.7 °C 1021.6 hPa Calm     99% 0.0 mm 0 W/m2
03:33 15.3 °C 15.2 °C 1021.6 hPa Calm     99% 0.0 mm 0 W/m2
03:34 15.3 °C 15.2 °C 1021.6 hPa Calm     99% 0.0 mm 0 W/m2
03:39 15.3 °C 15.2 °C 1021.6 hPa Calm     99% 0.0 mm 0 W/m2
03:44 14.9 °C 14.8 °C 1021.6 hPa Calm     99% 0.0 mm 0 W/m2
03:49 15.3 °C 15.2 °C 1021.2 hPa Calm     99% 0.0 mm 0 W/m2
03:54 15.3 °C 15.2 °C 1021.2 hPa Calm     99% 0.0 mm 0 W/m2
03:59 15.2 °C 15.1 °C 1021.6 hPa Calm     99% 0.0 mm 0 W/m2
04:04 14.7 °C 14.6 °C 1021.2 hPa Calm     99% 0.0 mm 0 W/m2
04:09 15.2 °C 15.1 °C 1021.2 hPa Calm     99% 0.0 mm 0 W/m2
04:14 15.2 °C 15.1 °C 1020.9 hPa Calm     99% 0.0 mm 0 W/m2
04:19 15.2 °C 15.1 °C 1021.2 hPa Calm     99% 0.0 mm 0 W/m2
04:24 15.2 °C 15.1 °C 1021.2 hPa Calm     99% 0.0 mm 0 W/m2
04:29 15.3 °C 15.2 °C 1021.2 hPa Calm     99% 0.0 mm 0 W/m2
04:34 15.3 °C 15.2 °C 1021.2 hPa Calm     99% 0.0 mm 0 W/m2
04:39 15.3 °C 15.2 °C 1020.9 hPa NW 2.6 km/h 5.0 km/h 99% 0.0 mm 0 W/m2
04:44 15.0 °C 14.8 °C 1020.9 hPa Calm   5.0 km/h 99% 0.0 mm 0 W/m2
04:49 15.2 °C 15.1 °C 1020.9 hPa Calm   3.5 km/h 99% 0.0 mm 0 W/m2
04:54 15.2 °C 15.1 °C 1020.9 hPa Calm     99% 0.0 mm 0 W/m2
04:59 15.2 °C 15.1 °C 1020.9 hPa Calm     99% 0.0 mm 0 W/m2
05:04 14.8 °C 14.7 °C 1020.9 hPa Calm     99% 0.0 mm 0 W/m2
05:09 15.1 °C 14.9 °C 1020.9 hPa Calm     99% 0.0 mm 0 W/m2
05:14 15.1 °C 14.9 °C 1020.9 hPa Calm     99% 0.0 mm 0 W/m2
05:19 15.1 °C 14.9 °C 1020.9 hPa Calm     99% 0.0 mm 0 W/m2
05:24 14.7 °C 14.6 °C 1020.9 hPa Calm     99% 0.0 mm 0 W/m2
05:29 15.1 °C 14.9 °C 1020.9 hPa Calm     99% 0.0 mm 0 W/m2
05:35 15.2 °C 15.1 °C 1020.9 hPa Calm     99% 0.0 mm 0 W/m2
05:40 15.0 °C 14.8 °C 1020.9 hPa Calm     99% 0.0 mm 0 W/m2
05:45 15.2 °C 15.1 °C 1020.5 hPa Calm     99% 0.0 mm 0 W/m2
05:50 15.3 °C 15.2 °C 1020.5 hPa Calm     99% 0.0 mm 0 W/m2
05:55 15.3 °C 15.2 °C 1020.2 hPa Calm     99% 0.0 mm 0 W/m2
06:00 15.0 °C 14.8 °C 1020.5 hPa Calm     99% 0.0 mm 0 W/m2
06:05 15.2 °C 15.1 °C 1020.5 hPa Calm     99% 0.0 mm 0 W/m2
06:10 15.1 °C 14.9 °C 1020.5 hPa Calm     99% 0.0 mm 0 W/m2
06:15 15.1 °C 14.9 °C 1020.5 hPa Calm     99% 0.0 mm 0 W/m2
06:20 15.1 °C 14.9 °C 1020.5 hPa Calm     99% 0.0 mm 0 W/m2
06:25 15.1 °C 14.9 °C 1020.5 hPa Calm     99% 0.0 mm 0 W/m2
06:30 15.1 °C 14.9 °C 1020.5 hPa Calm     99% 0.0 mm 0 W/m2
06:36 15.1 °C 14.9 °C 1020.5 hPa Calm     99% 0.0 mm 0 W/m2
06:39 15.1 °C 14.9 °C 1020.5 hPa Calm     99% 0.0 mm 0 W/m2
06:44 15.1 °C 14.9 °C 1020.5 hPa Calm     99% 0.0 mm 0 W/m2
06:49 15.1 °C 14.9 °C 1020.9 hPa Calm     99% 0.0 mm 0 W/m2
06:54 15.1 °C 14.9 °C 1020.5 hPa Calm     99% 0.0 mm 0 W/m2
06:59 15.1 °C 14.9 °C 1020.5 hPa Calm     99% 0.0 mm 0 W/m2
07:04 15.2 °C 15.1 °C 1020.5 hPa Calm   1.1 km/h 99% 0.3 mm 0 W/m2
07:09 15.1 °C 14.9 °C 1020.9 hPa Calm   1.1 km/h 99% 0.3 mm 2 W/m2
07:14 15.1 °C 14.9 °C 1020.9 hPa Calm     99% 0.3 mm 3 W/m2
07:19 15.1 °C 14.9 °C 1020.9 hPa Calm     99% 0.3 mm 4 W/m2
07:24 15.1 °C 14.9 °C 1020.9 hPa Calm     99% 0.3 mm 7 W/m2
07:29 15.2 °C 15.1 °C 1020.5 hPa Calm     99% 0.3 mm 12 W/m2
07:33 15.2 °C 15.1 °C 1020.9 hPa Calm     99% 0.3 mm 13 W/m2
07:39 15.2 °C 15.1 °C 1020.9 hPa Calm     99% 0.3 mm 14 W/m2
07:41 15.2 °C 15.1 °C 1020.9 hPa Calm     99% 0.3 mm 17 W/m2
07:43 15.2 °C 15.1 °C 1020.9 hPa Calm     99% 0.3 mm 21 W/m2
07:46 15.2 °C 15.1 °C 1020.5 hPa Calm   1.1 km/h 99% 0.3 mm 28 W/m2
07:47 15.2 °C 15.1 °C 1020.5 hPa Calm   1.1 km/h 99% 0.3 mm 31 W/m2
07:52 15.3 °C 15.2 °C 1020.9 hPa Calm   2.6 km/h 99% 0.3 mm 39 W/m2
07:57 15.3 °C 15.2 °C 1020.5 hPa Calm   2.6 km/h 99% 0.3 mm 43 W/m2
08:02 15.4 °C 15.3 °C 1020.5 hPa Calm     99% 0.0 mm 53 W/m2
08:07 15.5 °C 15.3 °C 1020.9 hPa Calm   5.0 km/h 99% 0.0 mm 79 W/m2
08:12 15.6 °C 15.4 °C 1020.5 hPa Calm   5.0 km/h 99% 0.0 mm 99 W/m2
08:13 15.6 °C 15.4 °C 1020.5 hPa Calm   5.0 km/h 99% 0.0 mm 101 W/m2
08:18 15.9 °C 15.8 °C 1020.5 hPa Calm     99% 0.0 mm 101 W/m2
08:23 16.1 °C 15.8 °C 1020.5 hPa Calm     98% 0.0 mm 114 W/m2
08:28 16.3 °C 16.0 °C 1020.5 hPa Calm     98% 0.0 mm 108 W/m2
08:33 16.4 °C 16.1 °C 1020.5 hPa Calm     98% 0.0 mm 89 W/m2
08:38 16.4 °C 16.1 °C 1020.5 hPa Calm     98% 0.0 mm 99 W/m2
08:43 16.5 °C 16.2 °C 1020.5 hPa Calm     98% 0.0 mm 126 W/m2
08:48 17.3 °C 16.8 °C 1020.2 hPa Calm     97% 0.0 mm 116 W/m2
08:53 16.8 °C 16.5 °C 1020.5 hPa Calm     98% 0.0 mm 124 W/m2
08:58 17.2 °C 16.6 °C 1020.2 hPa Calm     96% 0.0 mm 220 W/m2
09:03 17.7 °C 16.9 °C 1020.2 hPa Calm     95% 0.0 mm 195 W/m2
09:08 18.1 °C 17.3 °C 1020.5 hPa Calm     95% 0.0 mm 182 W/m2
09:13 18.1 °C 16.9 °C 1020.5 hPa Calm   1.1 km/h 93% 0.0 mm 207 W/m2
09:18 18.2 °C 16.6 °C 1020.5 hPa Calm   5.0 km/h 90% 0.0 mm 243 W/m2
09:23 18.4 °C 16.7 °C 1020.5 hPa Calm   7.2 km/h 90% 0.0 mm 222 W/m2
09:28 18.3 °C 16.4 °C 1020.9 hPa NNW 2.6 km/h 7.2 km/h 89% 0.0 mm 228 W/m2
09:33 18.7 °C 16.7 °C 1020.9 hPa NNW 1.1 km/h 6.1 km/h 88% 0.0 mm 209 W/m2
09:38 18.6 °C 16.6 °C 1020.5 hPa NNW 1.1 km/h 6.1 km/h 88% 0.0 mm 203 W/m2
09:43 18.8 °C 16.8 °C 1020.9 hPa Calm   6.1 km/h 88% 0.0 mm 227 W/m2
09:48 19.1 °C 16.9 °C 1020.9 hPa Calm   3.5 km/h 87% 0.0 mm 253 W/m2
09:53 19.2 °C 17.0 °C 1020.5 hPa Calm   2.6 km/h 87% 0.0 mm 218 W/m2
09:58 19.1 °C 16.7 °C 1020.5 hPa Calm     86% 0.0 mm 181 W/m2
10:03 19.1 °C 16.6 °C 1020.5 hPa Calm     85% 0.0 mm 182 W/m2
10:08 18.8 °C 16.4 °C 1020.5 hPa NNW 3.5 km/h 7.2 km/h 86% 0.0 mm 206 W/m2
10:13 19.2 °C 16.8 °C 1020.5 hPa Calm   7.2 km/h 86% 0.0 mm 291 W/m2
10:18 19.9 °C 17.5 °C 1020.5 hPa Calm   6.1 km/h 86% 0.0 mm 257 W/m2
10:23 20.3 °C 17.5 °C 1020.5 hPa Calm     84% 0.0 mm 274 W/m2
10:28 20.9 °C 17.7 °C 1020.5 hPa Calm     82% 0.0 mm 235 W/m2
10:33 20.9 °C 17.3 °C 1020.9 hPa Calm     80% 0.0 mm 199 W/m2
10:38 20.5 °C 16.9 °C 1020.5 hPa Calm     80% 0.0 mm 186 W/m2
10:43 20.5 °C 16.7 °C 1020.2 hPa Calm   6.1 km/h 79% 0.0 mm 304 W/m2
10:48 20.6 °C 16.8 °C 1020.2 hPa SSE 2.6 km/h 6.1 km/h 79% 0.0 mm 388 W/m2
10:53 21.0 °C 17.2 °C 1020.5 hPa Calm   6.1 km/h 79% 0.0 mm 288 W/m2
10:58 20.8 °C 17.1 °C 1020.2 hPa South 6.1 km/h 8.7 km/h 79% 0.0 mm 210 W/m2
11:03 20.5 °C 16.9 °C 1020.2 hPa Calm   8.7 km/h 80% 0.0 mm 201 W/m2
11:08 20.3 °C 16.9 °C 1019.9 hPa Calm   8.7 km/h 81% 0.0 mm 212 W/m2
11:13 20.3 °C 16.9 °C 1020.2 hPa Calm   7.2 km/h 81% 0.0 mm 179 W/m2
11:18 20.0 °C 16.8 °C 1020.2 hPa South 5.0 km/h 8.7 km/h 82% 0.0 mm 162 W/m2
11:23 19.8 °C 17.1 °C 1020.2 hPa SSW 2.6 km/h 8.7 km/h 84% 0.0 mm 203 W/m2
11:28 19.9 °C 17.1 °C 1019.9 hPa SSW 5.0 km/h 8.7 km/h 84% 0.0 mm 201 W/m2
11:33 20.0 °C 17.2 °C 1019.9 hPa SW 1.1 km/h 8.7 km/h 84% 0.0 mm 171 W/m2
11:38 19.7 °C 16.9 °C 1019.9 hPa SW 3.5 km/h 9.7 km/h 84% 0.0 mm 256 W/m2
11:56 20.7 °C 17.2 °C 1019.5 hPa SW 5.0 km/h 11.1 km/h 80% 0.0 mm 347 W/m2
12:01 20.5 °C 17.3 °C 1019.5 hPa SW 8.7 km/h 13.4 km/h 82% 0.0 mm 362 W/m2
12:06 20.5 °C 17.3 °C 1019.5 hPa SSW 5.0 km/h 13.4 km/h 82% 0.0 mm 251 W/m2
12:11 20.3 °C 17.2 °C 1019.5 hPa SW 8.7 km/h 13.4 km/h 82% 0.0 mm 244 W/m2
12:16 20.1 °C 17.1 °C 1019.5 hPa SW 6.1 km/h 11.1 km/h 83% 0.0 mm 142 W/m2
12:21 19.7 °C 17.1 °C 1019.5 hPa SW 8.7 km/h 11.1 km/h 85% 0.0 mm 147 W/m2
12:26 19.3 °C 16.9 °C 1019.5 hPa SSW 6.1 km/h 12.2 km/h 86% 0.0 mm 167 W/m2
12:31 19.1 °C 16.9 °C 1019.5 hPa SW 7.2 km/h 12.2 km/h 87% 0.0 mm 226 W/m2
12:36 19.0 °C 17.2 °C 1019.2 hPa SW 7.2 km/h 12.2 km/h 89% 0.0 mm 257 W/m2
12:41 19.0 °C 17.3 °C 1019.2 hPa SW 7.2 km/h 12.2 km/h 90% 0.0 mm 299 W/m2
12:46 19.1 °C 17.6 °C 1018.8 hPa SW 7.2 km/h 12.2 km/h 91% 0.0 mm 281 W/m2
12:51 19.2 °C 17.7 °C 1018.8 hPa SW 7.2 km/h 14.8 km/h 91% 0.0 mm 364 W/m2
12:56 19.3 °C 17.8 °C 1018.8 hPa SW 8.7 km/h 14.8 km/h 91% 0.0 mm 276 W/m2
13:01 19.1 °C 17.4 °C 1018.8 hPa SW 6.1 km/h 14.8 km/h 90% 0.0 mm 231 W/m2
13:06 18.9 °C 17.6 °C 1018.8 hPa SW 6.1 km/h 14.8 km/h 92% 0.3 mm 261 W/m2
13:11 19.1 °C 17.8 °C 1018.8 hPa SSW 8.7 km/h 12.2 km/h 92% 0.3 mm 415 W/m2
13:16 19.3 °C 18.0 °C 1018.8 hPa SW 6.1 km/h 12.2 km/h 92% 0.3 mm 418 W/m2
13:21 19.5 °C 18.2 °C 1018.8 hPa SW 6.1 km/h 13.4 km/h 92% 0.3 mm 798 W/m2
13:26 20.2 °C 18.5 °C 1018.8 hPa SW 9.7 km/h 14.8 km/h 90% 0.3 mm 666 W/m2
13:31 20.3 °C 18.3 °C 1018.8 hPa SW 9.7 km/h 14.8 km/h 88% 0.3 mm 577 W/m2
13:36 20.2 °C 18.2 °C 1018.5 hPa SSW 11.1 km/h 14.8 km/h 88% 0.3 mm 332 W/m2
13:41 20.1 °C 17.9 °C 1018.5 hPa SSW 8.7 km/h 14.8 km/h 87% 0.3 mm 409 W/m2
13:46 20.4 °C 18.4 °C 1018.8 hPa SSW 6.1 km/h 14.8 km/h 88% 0.3 mm 330 W/m2
13:51 20.5 °C 18.1 °C 1018.8 hPa SSW 7.2 km/h 13.4 km/h 86% 0.3 mm 454 W/m2
13:56 20.5 °C 17.9 °C 1018.8 hPa SSW 6.1 km/h 12.2 km/h 85% 0.3 mm 348 W/m2
14:01 20.5 °C 17.9 °C 1018.5 hPa SW 9.7 km/h 12.2 km/h 85% 0.3 mm 343 W/m2
14:06 20.4 °C 17.8 °C 1018.2 hPa SW 6.1 km/h 12.2 km/h 85% 0.0 mm 421 W/m2
14:11 20.6 °C 17.8 °C 1018.2 hPa SSW 11.1 km/h 14.8 km/h 84% 0.0 mm 425 W/m2
14:16 20.4 °C 17.8 °C 1018.2 hPa South 6.1 km/h 14.8 km/h 85% 0.0 mm 444 W/m2
14:21 20.5 °C 17.9 °C 1018.2 hPa South 6.1 km/h 13.4 km/h 85% 0.0 mm 291 W/m2
14:26 20.4 °C 17.8 °C 1018.2 hPa South 6.1 km/h 11.1 km/h 85% 0.0 mm 310 W/m2
14:31 20.3 °C 17.9 °C 1018.2 hPa SSW 7.2 km/h 12.2 km/h 86% 0.0 mm 329 W/m2
14:36 20.2 °C 17.8 °C 1018.2 hPa South 6.1 km/h 12.2 km/h 86% 0.0 mm 564 W/m2
14:41 20.3 °C 18.1 °C 1017.8 hPa South 8.7 km/h 11.1 km/h 87% 0.0 mm 400 W/m2
14:46 20.3 °C 18.3 °C 1017.8 hPa South 6.1 km/h 11.1 km/h 88% 0.0 mm 325 W/m2
14:51 20.1 °C 18.1 °C 1017.8 hPa South 6.1 km/h 12.2 km/h 88% 0.0 mm 336 W/m2
14:56 20.3 °C 18.6 °C 1017.8 hPa South 7.2 km/h 12.2 km/h 90% 0.0 mm 362 W/m2
15:01 20.5 °C 18.8 °C 1017.5 hPa South 7.2 km/h 11.1 km/h 90% 0.3 mm 461 W/m2
15:06 20.9 °C 19.2 °C 1017.5 hPa SSW 3.5 km/h 11.1 km/h 90% 0.3 mm 517 W/m2
15:11 21.6 °C 19.4 °C 1017.8 hPa SSW 5.0 km/h 11.1 km/h 87% 0.3 mm 324 W/m2
15:16 21.3 °C 18.5 °C 1017.8 hPa SSW 5.0 km/h 8.7 km/h 84% 0.3 mm 385 W/m2
15:21 21.2 °C 18.4 °C 1017.5 hPa South 2.6 km/h 8.7 km/h 84% 0.3 mm 351 W/m2
15:26 21.2 °C 18.2 °C 1017.5 hPa SSE 6.1 km/h 11.1 km/h 83% 0.3 mm 566 W/m2
15:31 22.0 °C 19.2 °C 1017.2 hPa SE 5.0 km/h 11.1 km/h 84% 0.3 mm 410 W/m2
15:36 22.1 °C 18.7 °C 1017.2 hPa SSE 7.2 km/h 14.8 km/h 81% 0.3 mm 552 W/m2
15:41 22.1 °C 18.5 °C 1016.8 hPa South 6.1 km/h 14.8 km/h 80% 0.3 mm 483 W/m2
15:46 22.3 °C 18.9 °C 1016.8 hPa South 7.2 km/h 13.4 km/h 81% 0.3 mm 487 W/m2
15:51 21.9 °C 18.7 °C 1016.5 hPa South 11.1 km/h 13.4 km/h 82% 0.3 mm 452 W/m2
15:56 21.8 °C 19.0 °C 1016.5 hPa South 8.7 km/h 13.4 km/h 84% 0.3 mm 458 W/m2
16:01 22.1 °C 18.9 °C 1016.5 hPa South 5.0 km/h 12.2 km/h 82% 0.0 mm 362 W/m2
16:06 22.4 °C 19.2 °C 1016.5 hPa SSW 6.1 km/h 11.1 km/h 82% 0.0 mm 375 W/m2
16:11 22.3 °C 18.9 °C 1016.5 hPa SSW 5.0 km/h 11.1 km/h 81% 0.0 mm 368 W/m2
16:16 22.5 °C 19.1 °C 1016.1 hPa SSW 5.0 km/h 11.1 km/h 81% 0.0 mm 598 W/m2
16:21 22.2 °C 18.6 °C 1016.1 hPa SSW 5.0 km/h 12.2 km/h 80% 0.0 mm 209 W/m2
16:26 21.7 °C 18.9 °C 1016.1 hPa South 3.5 km/h 12.2 km/h 84% 0.0 mm 204 W/m2
16:31 21.6 °C 18.6 °C 1016.1 hPa SSW 5.0 km/h 11.1 km/h 83% 0.0 mm 190 W/m2
16:36 21.8 °C 19.0 °C 1015.8 hPa South 3.5 km/h 11.1 km/h 84% 0.0 mm 229 W/m2
16:41 21.9 °C 18.9 °C 1015.8 hPa South 8.7 km/h 11.1 km/h 83% 0.0 mm 132 W/m2
16:46 21.3 °C 18.5 °C 1015.5 hPa South 7.2 km/h 11.1 km/h 84% 0.0 mm 194 W/m2
16:51 21.9 °C 19.1 °C 1015.5 hPa South 5.0 km/h 14.8 km/h 84% 0.0 mm 499 W/m2
16:56 22.8 °C 19.6 °C 1015.5 hPa SSW 8.7 km/h 14.8 km/h 82% 0.0 mm 461 W/m2
17:01 23.5 °C 19.7 °C 1015.5 hPa South 5.0 km/h 12.2 km/h 79% 0.0 mm 374 W/m2
17:06 23.3 °C 19.1 °C 1015.5 hPa South 3.5 km/h 12.2 km/h 77% 0.0 mm 328 W/m2
17:11 23.0 °C 19.0 °C 1015.5 hPa SSW 6.1 km/h 11.1 km/h 78% 0.0 mm 128 W/m2
17:16 22.2 °C 18.8 °C 1015.1 hPa SW 7.2 km/h 9.7 km/h 81% 0.0 mm 123 W/m2
17:21 21.4 °C 18.4 °C 1015.5 hPa SW 5.0 km/h 12.2 km/h 83% 0.0 mm 115 W/m2
17:26 21.1 °C 18.5 °C 1015.1 hPa SSW 8.7 km/h 12.2 km/h 85% 0.0 mm 123 W/m2
17:31 20.9 °C 18.7 °C 1014.8 hPa SSW 8.7 km/h 11.1 km/h 87% 0.0 mm 122 W/m2
17:36 20.7 °C 18.7 °C 1014.8 hPa SSW 5.0 km/h 12.2 km/h 88% 0.0 mm 130 W/m2
17:41 20.7 °C 18.8 °C 1014.8 hPa SSW 7.2 km/h 12.2 km/h 89% 0.0 mm 130 W/m2
17:46 20.6 °C 18.7 °C 1014.8 hPa SW 5.0 km/h 11.1 km/h 89% 0.0 mm 131 W/m2
17:51 20.7 °C 19.0 °C 1014.8 hPa SSW 5.0 km/h 11.1 km/h 90% 0.0 mm 126 W/m2
17:56 20.9 °C 19.2 °C 1014.8 hPa SSW 6.1 km/h 9.7 km/h 90% 0.0 mm 123 W/m2
18:01 20.9 °C 19.1 °C 1014.8 hPa Calm   9.7 km/h 89% 0.0 mm 119 W/m2
18:06 21.1 °C 19.1 °C 1014.8 hPa Calm   8.7 km/h 88% 0.0 mm 106 W/m2
18:12 21.1 °C 19.1 °C 1014.8 hPa Calm   6.1 km/h 88% 0.0 mm 95 W/m2
18:17 21.3 °C 19.3 °C 1014.8 hPa Calm   5.0 km/h 88% 0.0 mm 86 W/m2
18:22 21.5 °C 19.4 °C 1014.8 hPa Calm     88% 0.0 mm 78 W/m2
18:27 21.7 °C 19.3 °C 1014.8 hPa Calm     86% 0.0 mm 65 W/m2
18:32 21.8 °C 19.4 °C 1014.8 hPa Calm     86% 0.0 mm 56 W/m2
18:37 21.8 °C 19.4 °C 1015.1 hPa Calm     86% 0.0 mm 47 W/m2
18:42 21.7 °C 19.1 °C 1014.8 hPa Calm     85% 0.0 mm 34 W/m2
18:47 21.5 °C 19.1 °C 1014.8 hPa Calm     86% 0.0 mm 26 W/m2
18:52 21.3 °C 18.9 °C 1014.8 hPa Calm     86% 0.0 mm 25 W/m2
18:57 21.3 °C 19.1 °C 1014.8 hPa Calm     87% 0.0 mm 24 W/m2
19:02 21.3 °C 19.1 °C 1014.8 hPa Calm     87% 0.0 mm 20 W/m2
19:07 21.2 °C 18.9 °C 1014.8 hPa Calm     87% 0.0 mm 17 W/m2
19:12 21.1 °C 19.1 °C 1014.8 hPa Calm     88% 0.0 mm 14 W/m2
19:17 20.8 °C 18.9 °C 1014.8 hPa Calm     89% 0.0 mm 8 W/m2
19:19 20.7 °C 19.0 °C 1014.8 hPa South 5.0 km/h 6.1 km/h 90% 0.0 mm 7 W/m2
19:24 20.4 °C 19.1 °C 1014.8 hPa South 5.0 km/h 7.2 km/h 92% 0.0 mm 4 W/m2
19:29 20.3 °C 19.2 °C 1014.8 hPa South 6.1 km/h 9.7 km/h 93% 0.0 mm 2 W/m2
19:34 20.1 °C 18.9 °C 1014.8 hPa SSW 2.6 km/h 9.7 km/h 93% 0.0 mm 0 W/m2
19:39 20.0 °C 18.8 °C 1014.8 hPa Calm   9.7 km/h 93% 0.0 mm 0 W/m2
19:44 19.9 °C 19.1 °C 1014.8 hPa Calm   5.0 km/h 95% 0.0 mm 0 W/m2
19:49 19.7 °C 18.9 °C 1014.8 hPa Calm     95% 0.0 mm 0 W/m2
19:54 19.6 °C 18.8 °C 1014.4 hPa South 2.6 km/h 3.5 km/h 95% 0.0 mm 0 W/m2
19:59 19.5 °C 18.7 °C 1014.8 hPa Calm   6.1 km/h 95% 0.0 mm 0 W/m2
20:04 19.5 °C 18.9 °C 1014.8 hPa Calm   6.1 km/h 96% 0.0 mm 0 W/m2
20:09 19.4 °C 18.8 °C 1014.8 hPa Calm     96% 0.0 mm 0 W/m2
20:14 19.4 °C 18.8 °C 1014.8 hPa Calm     96% 0.0 mm 0 W/m2
20:19 19.3 °C 18.7 °C 1014.8 hPa Calm     96% 0.0 mm 0 W/m2
20:24 19.3 °C 18.7 °C 1014.8 hPa Calm   1.1 km/h 96% 0.0 mm 0 W/m2
20:29 19.3 °C 18.7 °C 1014.8 hPa Calm   1.1 km/h 96% 0.0 mm 0 W/m2
20:34 19.5 °C 18.9 °C 1014.8 hPa Calm   6.1 km/h 96% 0.0 mm 0 W/m2
20:39 19.8 °C 19.0 °C 1015.1 hPa North 1.1 km/h 6.1 km/h 95% 0.0 mm 0 W/m2
20:59 20.3 °C 17.7 °C 1015.1 hPa NNE 3.5 km/h 9.7 km/h 85% 0.0 mm 0 W/m2
21:04 20.5 °C 17.6 °C 1015.1 hPa NNE 3.5 km/h 9.7 km/h 83% 0.0 mm 0 W/m2
21:09 20.7 °C 17.6 °C 1015.1 hPa Calm   9.7 km/h 82% 0.0 mm 0 W/m2
21:14 20.7 °C 17.3 °C 1014.8 hPa Calm   9.7 km/h 81% 0.0 mm 0 W/m2
21:19 20.7 °C 17.2 °C 1014.8 hPa Calm     80% 0.0 mm 0 W/m2
21:24 20.8 °C 17.1 °C 1014.8 hPa Calm     79% 0.0 mm 0 W/m2
21:29 20.7 °C 16.9 °C 1014.8 hPa NE 3.5 km/h 6.1 km/h 79% 0.0 mm 0 W/m2
21:34 20.8 °C 16.8 °C 1014.8 hPa ENE 3.5 km/h 8.7 km/h 78% 0.0 mm 0 W/m2
21:39 20.7 °C 16.7 °C 1014.8 hPa ENE 1.1 km/h 8.7 km/h 78% 0.0 mm 0 W/m2
21:44 20.7 °C 16.7 °C 1014.8 hPa Calm   11.1 km/h 78% 0.0 mm 0 W/m2
21:49 20.6 °C 16.8 °C 1014.8 hPa NE 2.6 km/h 11.1 km/h 79% 0.0 mm 0 W/m2
21:54 20.6 °C 16.8 °C 1014.8 hPa Calm   6.1 km/h 79% 0.0 mm 0 W/m2
21:59 20.5 °C 16.7 °C 1015.1 hPa NNE 3.5 km/h 6.1 km/h 79% 0.0 mm 0 W/m2
22:04 20.5 °C 16.7 °C 1014.8 hPa North 3.5 km/h 7.2 km/h 79% 0.0 mm 0 W/m2
22:09 20.5 °C 16.7 °C 1014.8 hPa North 3.5 km/h 8.7 km/h 79% 0.0 mm 0 W/m2
22:14 20.5 °C 16.7 °C 1014.8 hPa North 1.1 km/h 8.7 km/h 79% 0.0 mm 0 W/m2
22:19 20.4 °C 16.8 °C 1014.8 hPa Calm   8.7 km/h 80% 0.0 mm 0 W/m2
22:24 20.4 °C 16.8 °C 1014.8 hPa NNE 1.1 km/h 5.0 km/h 80% 0.0 mm 0 W/m2
22:29 20.3 °C 16.8 °C 1014.8 hPa Calm   5.0 km/h 80% 0.0 mm 0 W/m2
22:34 20.3 °C 16.8 °C 1014.4 hPa Calm   3.5 km/h 80% 0.0 mm 0 W/m2
22:39 20.2 °C 16.8 °C 1014.1 hPa Calm   1.1 km/h 81% 0.0 mm 0 W/m2
22:44 20.2 °C 16.8 °C 1014.1 hPa Calm   1.1 km/h 81% 0.0 mm 0 W/m2
22:49 20.1 °C 16.8 °C 1014.1 hPa Calm     81% 0.0 mm 0 W/m2
22:54 20.0 °C 16.7 °C 1013.8 hPa Calm     81% 0.0 mm 0 W/m2
22:59 20.0 °C 16.8 °C 1013.8 hPa Calm     82% 0.0 mm 0 W/m2
23:04 19.9 °C 17.1 °C 1013.8 hPa Calm     84% 0.0 mm 0 W/m2
23:09 19.9 °C 17.1 °C 1013.8 hPa Calm   2.6 km/h 84% 0.0 mm 0 W/m2
23:14 19.8 °C 17.1 °C 1013.8 hPa Calm   2.6 km/h 84% 0.0 mm 0 W/m2
23:19 19.8 °C 17.1 °C 1013.4 hPa Calm   2.6 km/h 84% 0.0 mm 0 W/m2
23:24 19.7 °C 16.9 °C 1013.4 hPa Calm   2.6 km/h 84% 0.0 mm 0 W/m2
23:29 19.6 °C 17.0 °C 1013.4 hPa Calm     85% 0.0 mm 0 W/m2
23:34 19.5 °C 16.9 °C 1013.4 hPa Calm   3.5 km/h 85% 0.0 mm 0 W/m2
23:39 19.4 °C 16.8 °C 1013.4 hPa Calm   3.5 km/h 85% 0.0 mm 0 W/m2
23:44 19.3 °C 16.7 °C 1013.4 hPa Calm     85% 0.0 mm 0 W/m2
23:49 19.3 °C 16.7 °C 1013.4 hPa Calm     85% 0.0 mm 0 W/m2
23:54 19.2 °C 16.6 °C 1013.1 hPa Calm     85% 0.0 mm 0 W/m2
23:59 19.0 °C 16.4 °C 1013.1 hPa Calm     85% 0.0 mm 0 W/m2
Northern Hawkes Bay. New Zealand Historic Data
Compliments of Weather Underground - 2 mb